createdAt,value
2023-02-25T00:01:58.068Z,96144.41
2023-02-25T00:04:31.442Z,96148.34
2023-02-25T00:06:59.766Z,96153.81
2023-02-25T00:09:28.144Z,96158.06
2023-02-25T00:11:56.411Z,96157.91
2023-02-25T00:14:26.106Z,96154.78
2023-02-25T00:16:56.169Z,96158.25
2023-02-25T00:19:25.501Z,96159.25
2023-02-25T00:21:53.878Z,96159.75
2023-02-25T00:24:22.405Z,96164.00
2023-02-25T00:26:50.823Z,96164.84
2023-02-25T00:29:19.498Z,96156.09
2023-02-25T00:31:49.313Z,96162.38
2023-02-25T00:34:18.331Z,96160.56
2023-02-25T00:36:46.860Z,96160.41
2023-02-25T00:39:15.754Z,96160.41
2023-02-25T00:41:44.194Z,96165.50
2023-02-25T00:44:13.113Z,96163.38
2023-02-25T00:46:41.459Z,96159.72
2023-02-25T00:49:13.360Z,96152.50
2023-02-25T00:51:45.067Z,96157.75
2023-02-25T00:54:13.276Z,96146.38
2023-02-25T00:56:41.530Z,96138.47
2023-02-25T00:59:09.778Z,96150.66
2023-02-25T01:01:38.575Z,96156.94
2023-02-25T01:04:07.588Z,96158.91
2023-02-25T01:06:38.765Z,96160.56
2023-02-25T01:09:13.853Z,96173.75
2023-02-25T01:11:45.943Z,96173.06
2023-02-25T01:14:17.184Z,96178.34
2023-02-25T01:16:46.800Z,96165.16
2023-02-25T01:19:19.721Z,96163.53
2023-02-25T01:21:52.659Z,96161.84
2023-02-25T01:24:23.975Z,96163.53
2023-02-25T01:26:55.367Z,96160.22
2023-02-25T01:29:27.343Z,96165.50
2023-02-25T01:31:57.710Z,96173.56
2023-02-25T01:34:26.933Z,96174.72
2023-02-25T01:36:57.391Z,96181.97
2023-02-25T01:39:27.709Z,96174.22
2023-02-25T01:41:58.857Z,96176.84
2023-02-25T01:44:32.225Z,96183.13
2023-02-25T01:47:01.500Z,96177.84
2023-02-25T01:49:36.426Z,96194.50
2023-02-25T01:52:11.421Z,96199.94
2023-02-25T01:54:40.106Z,96196.31
2023-02-25T01:57:11.592Z,96192.19
2023-02-25T01:59:41.804Z,96179.81
2023-02-25T02:02:10.745Z,96185.09
2023-02-25T02:04:40.788Z,96192.34
2023-02-25T02:07:10.512Z,96184.94
2023-02-25T02:09:40.356Z,96188.03
2023-02-25T02:12:09.139Z,96188.03
2023-02-25T02:14:40.552Z,96190.84
2023-02-25T02:17:21.911Z,96186.56
2023-02-25T02:20:13.374Z,96185.75
2023-02-25T02:23:31.351Z,96199.91
2023-02-25T02:26:31.841Z,96191.13
2023-02-25T02:29:34.818Z,96177.97
2023-02-25T02:32:15.687Z,96183.88
2023-02-25T02:34:54.051Z,96193.78
2023-02-25T02:37:32.983Z,96194.41
2023-02-25T02:40:19.616Z,96195.41
2023-02-25T02:43:05.726Z,96205.13
2023-02-25T02:45:41.188Z,96206.59
2023-02-25T02:48:13.990Z,96189.00
2023-02-25T02:50:46.794Z,96177.44
2023-02-25T02:53:20.604Z,96183.88
2023-02-25T02:55:54.056Z,96199.69
2023-02-25T02:58:29.168Z,96193.75
2023-02-25T03:01:04.810Z,96201.34
2023-02-25T03:03:39.727Z,96190.78
2023-02-25T03:06:13.468Z,96191.63
2023-02-25T03:08:46.090Z,96207.59
2023-02-25T03:11:15.210Z,96209.91
2023-02-25T03:13:44.447Z,96200.34
2023-02-25T03:16:19.558Z,96214.34
2023-02-25T03:18:56.201Z,96206.44
2023-02-25T03:21:30.246Z,96205.44
2023-02-25T03:23:59.636Z,96217.81
2023-02-25T03:26:31.111Z,96230.63
2023-02-25T03:28:59.767Z,96233.38
2023-02-25T03:31:34.360Z,96227.63
2023-02-25T03:34:10.692Z,96237.50
2023-02-25T03:36:44.187Z,96224.00
2023-02-25T03:39:17.655Z,96232.69
2023-02-25T03:41:50.321Z,96242.41
2023-02-25T03:44:22.533Z,96238.28
2023-02-25T03:46:51.127Z,96231.66
2023-02-25T03:49:27.242Z,96252.88
2023-02-25T03:51:58.003Z,96255.81
2023-02-25T03:54:27.427Z,96266.34
2023-02-25T03:56:56.325Z,96280.84
2023-02-25T03:59:28.063Z,96296.78
2023-02-25T04:01:58.331Z,96276.88
2023-02-25T04:04:28.362Z,96283.56
2023-02-25T04:06:56.659Z,96285.03
2023-02-25T04:09:24.943Z,96279.03
2023-02-25T04:11:57.056Z,96285.22
2023-02-25T04:14:25.657Z,96280.88
2023-02-25T04:16:53.944Z,96273.59
2023-02-25T04:19:22.359Z,96289.00
2023-02-25T04:21:51.979Z,96285.34
2023-02-25T04:24:20.255Z,96295.50
2023-02-25T04:26:48.608Z,96291.22
2023-02-25T04:29:16.875Z,96293.03
2023-02-25T04:31:45.452Z,96286.25
2023-02-25T04:34:13.924Z,96286.56
2023-02-25T04:36:44.336Z,96292.66
2023-02-25T04:39:16.847Z,96300.72
2023-02-25T04:41:45.500Z,96296.44
2023-02-25T04:44:13.921Z,96298.38
2023-02-25T04:46:44.019Z,96300.63
2023-02-25T04:49:12.824Z,96308.50
2023-02-25T04:51:41.113Z,96311.16
2023-02-25T04:54:09.378Z,96313.47
2023-02-25T04:56:40.123Z,96314.59
2023-02-25T04:59:11.364Z,96304.25
2023-02-25T05:01:39.790Z,96315.59
2023-02-25T05:04:08.551Z,96312.13
2023-02-25T05:06:36.840Z,96326.41
2023-02-25T05:09:05.525Z,96314.06
2023-02-25T05:11:33.824Z,96312.44
2023-02-25T05:14:03.481Z,96315.06
2023-02-25T05:16:31.828Z,96315.75
2023-02-25T05:19:00.419Z,96316.56
2023-02-25T05:21:29.355Z,96315.75
2023-02-25T05:23:57.869Z,96319.88
2023-02-25T05:26:26.793Z,96319.03
2023-02-25T05:28:57.988Z,96331.38
2023-02-25T05:31:27.891Z,96326.25
2023-02-25T05:33:56.175Z,96325.28
2023-02-25T05:36:27.789Z,96321.66
2023-02-25T05:38:58.842Z,96329.41
2023-02-25T05:41:27.931Z,96324.13
2023-02-25T05:43:58.182Z,96321.66
2023-02-25T05:46:28.159Z,96319.03
2023-02-25T05:48:56.945Z,96321.00
2023-02-25T05:51:25.253Z,96330.53
2023-02-25T05:53:54.010Z,96323.63
2023-02-25T05:56:26.149Z,96322.81
2023-02-25T05:58:55.058Z,96320.84
2023-02-25T06:01:27.754Z,96317.53
2023-02-25T06:03:58.670Z,96321.31
2023-02-25T06:06:29.738Z,96324.22
2023-02-25T06:08:58.572Z,96336.53
2023-02-25T06:11:29.955Z,96332.13
2023-02-25T06:13:59.677Z,96339.47
2023-02-25T06:16:30.382Z,96342.94
2023-02-25T06:19:00.959Z,96347.34
2023-02-25T06:21:29.326Z,96353.75
2023-02-25T06:23:57.628Z,96360.66
2023-02-25T06:26:26.170Z,96365.53
2023-02-25T06:28:54.664Z,96367.03
2023-02-25T06:31:25.086Z,96373.09
2023-02-25T06:33:54.977Z,96361.94
2023-02-25T06:36:25.068Z,96368.84
2023-02-25T06:38:53.538Z,96371.91
2023-02-25T06:41:23.512Z,96371.63
2023-02-25T06:43:53.127Z,96375.88
2023-02-25T06:46:24.473Z,96369.81
2023-02-25T06:48:53.328Z,96374.25
2023-02-25T06:51:21.581Z,96383.78
2023-02-25T06:53:53.013Z,96373.09
2023-02-25T06:56:22.200Z,96371.63
2023-02-25T06:58:52.582Z,96376.03
2023-02-25T07:01:21.002Z,96379.66
2023-02-25T07:03:49.594Z,96377.84
2023-02-25T07:06:18.154Z,96380.34
2023-02-25T07:08:47.063Z,96384.75
2023-02-25T07:11:30.199Z,96378.50
2023-02-25T07:13:58.486Z,96386.94
2023-02-25T07:16:29.887Z,96388.59
2023-02-25T07:19:02.178Z,96395.88
2023-02-25T07:21:31.078Z,96387.56
2023-02-25T07:23:59.478Z,96389.44
2023-02-25T07:26:29.295Z,96392.31
2023-02-25T07:28:58.848Z,96401.84
2023-02-25T07:31:29.502Z,96391.25
2023-02-25T07:34:03.258Z,96406.16
2023-02-25T07:36:33.119Z,96403.53
2023-02-25T07:39:01.997Z,96403.41
2023-02-25T07:41:31.635Z,96408.22
2023-02-25T07:44:00.256Z,96400.19
2023-02-25T07:46:28.753Z,96405.00
2023-02-25T07:48:57.059Z,96409.81
2023-02-25T07:51:26.809Z,96406.66
2023-02-25T07:53:57.476Z,96404.34
2023-02-25T07:56:29.588Z,96403.06
2023-02-25T07:58:59.287Z,96402.81
2023-02-25T08:01:31.639Z,96408.09
2023-02-25T08:04:04.094Z,96407.44
2023-02-25T08:06:35.030Z,96403.66
2023-02-25T08:09:03.645Z,96391.19
2023-02-25T08:11:32.113Z,96396.44
2023-02-25T08:14:02.447Z,96399.53
2023-02-25T08:16:30.743Z,96403.66
2023-02-25T08:18:59.317Z,96403.66
2023-02-25T08:21:27.934Z,96401.03
2023-02-25T08:23:56.731Z,96399.09
2023-02-25T08:26:27.528Z,96397.25
2023-02-25T08:28:57.559Z,96386.41
2023-02-25T08:31:28.361Z,96391.22
2023-02-25T08:33:58.661Z,96394.00
2023-02-25T08:36:30.486Z,96392.59
2023-02-25T08:39:00.084Z,96392.41
2023-02-25T08:41:30.047Z,96387.34
2023-02-25T08:44:00.520Z,96389.84
2023-02-25T08:46:32.989Z,96386.25
2023-02-25T08:49:01.389Z,96368.34
2023-02-25T08:51:35.030Z,96380.06
2023-02-25T08:54:06.692Z,96377.94
2023-02-25T08:56:36.145Z,96374.84
2023-02-25T08:59:06.170Z,96388.59
2023-02-25T09:01:45.752Z,96387.72
2023-02-25T09:04:15.847Z,96399.78
2023-02-25T09:06:47.260Z,96403.38
2023-02-25T09:09:16.229Z,96403.09
2023-02-25T09:11:45.902Z,96397.19
2023-02-25T09:14:15.119Z,96394.06
2023-02-25T09:16:44.886Z,96401.19
2023-02-25T09:19:15.642Z,96404.66
2023-02-25T09:21:44.722Z,96390.47
2023-02-25T09:24:12.998Z,96394.13
2023-02-25T09:26:41.341Z,96396.13
2023-02-25T09:29:10.135Z,96397.81
2023-02-25T09:31:39.787Z,96392.03
2023-02-25T09:34:15.239Z,96395.88
2023-02-25T09:36:44.170Z,96393.91
2023-02-25T09:39:12.544Z,96381.22
2023-02-25T09:41:52.552Z,96383.84
2023-02-25T09:44:26.931Z,96388.81
2023-02-25T09:47:05.491Z,96397.25
2023-02-25T09:49:40.189Z,96392.59
2023-02-25T09:52:18.675Z,96394.09
2023-02-25T09:54:49.859Z,96384.38
2023-02-25T09:57:22.520Z,96397.72
2023-02-25T09:59:53.630Z,96396.88
2023-02-25T10:02:31.213Z,96398.53
2023-02-25T10:05:18.218Z,96394.75
2023-02-25T10:07:59.286Z,96392.13
2023-02-25T10:10:39.967Z,96392.94
2023-02-25T10:13:24.767Z,96389.47
2023-02-25T10:16:04.755Z,96399.06
2023-02-25T10:18:55.008Z,96386.19
2023-02-25T10:21:42.667Z,96392.94
2023-02-25T10:24:31.639Z,96389.16
2023-02-25T10:27:18.338Z,96397.44
2023-02-25T10:29:50.288Z,96389.00
2023-02-25T10:32:23.517Z,96394.63
2023-02-25T10:34:53.719Z,96386.03
2023-02-25T10:37:28.875Z,96370.50
2023-02-25T10:40:01.195Z,96374.97
2023-02-25T10:42:30.312Z,96371.16
2023-02-25T10:45:09.261Z,96372.16
2023-02-25T10:47:40.936Z,96367.88
2023-02-25T10:50:18.524Z,96368.69
2023-02-25T10:53:02.813Z,96358.13
2023-02-25T10:55:52.486Z,96355.50
2023-02-25T10:58:34.838Z,96364.22
2023-02-25T11:01:10.067Z,96357.47
2023-02-25T11:03:53.091Z,96362.91
2023-02-25T11:06:27.320Z,96353.84
2023-02-25T11:08:59.469Z,96355.81
2023-02-25T11:11:31.839Z,96348.72
2023-02-25T11:14:07.789Z,96335.97
2023-02-25T11:16:38.881Z,96340.22
2023-02-25T11:19:16.871Z,96337.84
2023-02-25T11:21:46.069Z,96333.66
2023-02-25T11:24:20.132Z,96323.38
2023-02-25T11:26:51.066Z,96323.84
2023-02-25T11:29:24.972Z,96343.97
2023-02-25T11:31:57.760Z,96320.63
2023-02-25T11:34:30.714Z,96326.38
2023-02-25T11:37:27.941Z,96322.56
2023-02-25T11:39:59.255Z,96326.66
2023-02-25T11:42:30.211Z,96318.91
2023-02-25T11:45:03.272Z,96317.09
2023-02-25T11:47:34.142Z,96307.53
2023-02-25T11:50:23.628Z,96315.16
2023-02-25T11:53:05.121Z,96315.66
2023-02-25T11:55:56.591Z,96311.41
2023-02-25T11:58:37.736Z,96305.84
2023-02-25T12:01:16.612Z,96297.41
2023-02-25T12:04:13.102Z,96294.44
2023-02-25T12:07:00.480Z,96290.75
2023-02-25T12:10:11.198Z,96296.16
2023-02-25T12:13:26.837Z,96295.66
2023-02-25T12:17:12.241Z,96291.28
2023-02-25T12:20:30.681Z,96296.28
2023-02-25T12:23:47.610Z,96294.72
2023-02-25T12:26:31.031Z,96295.13
2023-02-25T12:29:19.046Z,96290.41
2023-02-25T12:32:09.403Z,96284.75
2023-02-25T12:35:17.349Z,96280.13
2023-02-25T12:38:29.486Z,96280.69
2023-02-25T12:41:25.913Z,96266.81
2023-02-25T12:44:03.696Z,96274.84
2023-02-25T12:46:54.195Z,96274.13
2023-02-25T12:50:02.298Z,96276.88
2023-02-25T12:52:50.070Z,96286.66
2023-02-25T12:55:56.514Z,96282.38
2023-02-25T12:58:40.449Z,96275.69
2023-02-25T13:01:44.046Z,96274.47
2023-02-25T13:04:40.128Z,96277.59
2023-02-25T13:07:35.724Z,96276.22
2023-02-25T13:10:35.802Z,96269.94
2023-02-25T13:13:34.062Z,96271.34
2023-02-25T13:16:19.880Z,96275.44
2023-02-25T13:19:04.861Z,96278.72
2023-02-25T13:22:00.133Z,96275.13
2023-02-25T13:24:46.753Z,96260.97
2023-02-25T13:27:45.696Z,96260.25
2023-02-25T13:30:27.837Z,96270.09
2023-02-25T13:33:14.729Z,96254.66
2023-02-25T13:35:55.650Z,96260.94
2023-02-25T13:38:45.761Z,96255.22
2023-02-25T13:41:32.150Z,96256.84
2023-02-25T13:44:36.171Z,96258.03
2023-02-25T13:47:44.820Z,96262.44
2023-02-25T13:51:01.081Z,96257.66
2023-02-25T13:53:57.602Z,96254.94
2023-02-25T13:56:46.871Z,96266.66
2023-02-25T13:59:36.159Z,96267.03
2023-02-25T14:02:49.693Z,96269.56
2023-02-25T14:05:47.710Z,96261.25
2023-02-25T14:08:35.027Z,96262.19
2023-02-25T14:11:26.927Z,96274.97
2023-02-25T14:14:19.946Z,96274.88
2023-02-25T14:17:16.900Z,96285.75
2023-02-25T14:20:01.579Z,96278.88
2023-02-25T14:22:38.296Z,96285.44
2023-02-25T14:25:21.953Z,96284.53
2023-02-25T14:28:01.377Z,96285.06
2023-02-25T14:30:44.852Z,96288.94
2023-02-25T14:33:41.185Z,96289.66
2023-02-25T14:36:32.310Z,96287.53
2023-02-25T14:39:25.145Z,96291.88
2023-02-25T14:42:14.400Z,96293.69
2023-02-25T14:44:48.931Z,96303.34
2023-02-25T14:47:23.988Z,96307.06
2023-02-25T14:50:00.335Z,96325.47
2023-02-25T14:52:56.298Z,96339.44
2023-02-25T14:56:03.099Z,96337.69
2023-02-25T14:59:18.683Z,96328.31
2023-02-25T15:02:19.972Z,96332.16
2023-02-25T15:05:19.591Z,96329.75
2023-02-25T15:08:19.923Z,96336.91
2023-02-25T15:11:22.772Z,96345.50
2023-02-25T15:14:12.322Z,96345.06
2023-02-25T15:17:20.384Z,96339.63
2023-02-25T15:20:20.533Z,96352.66
2023-02-25T15:23:07.370Z,96348.22
2023-02-25T15:25:53.888Z,96347.88
2023-02-25T15:28:44.766Z,96358.94
2023-02-25T15:31:40.406Z,96353.00
2023-02-25T15:34:37.721Z,96353.50
2023-02-25T15:37:25.295Z,96352.84
2023-02-25T15:39:56.687Z,96349.38
2023-02-25T15:42:47.540Z,96348.88
2023-02-25T15:45:47.159Z,96357.97
2023-02-25T15:48:34.901Z,96366.06
2023-02-25T15:51:11.529Z,96362.91
2023-02-25T15:53:48.109Z,96368.84
2023-02-25T15:56:50.416Z,96424.63
2023-02-25T15:59:42.177Z,96445.88
2023-02-25T16:02:46.356Z,96447.00
2023-02-25T16:05:29.663Z,96451.75
2023-02-25T16:08:15.828Z,96457.66
2023-02-25T16:10:49.241Z,96459.09
2023-02-25T16:13:27.821Z,96476.97
2023-02-25T16:15:58.430Z,96460.63
2023-02-25T16:18:33.502Z,96470.63
2023-02-25T16:21:06.127Z,96471.84
2023-02-25T16:23:41.866Z,96478.03
2023-02-25T16:26:26.570Z,96482.72
2023-02-25T16:29:08.667Z,96483.47
2023-02-25T16:31:47.354Z,96464.97
2023-02-25T16:34:23.046Z,96475.47
2023-02-25T16:37:02.872Z,96480.34
2023-02-25T16:39:33.753Z,96480.66
2023-02-25T16:42:05.471Z,96489.16
2023-02-25T16:44:39.003Z,96492.94
2023-02-25T16:47:21.735Z,96485.31
2023-02-25T16:49:50.747Z,96488.91
2023-02-25T16:52:23.063Z,96498.25
2023-02-25T16:54:59.300Z,96494.13
2023-02-25T16:57:28.786Z,96509.09
2023-02-25T17:00:15.627Z,96513.69
2023-02-25T17:02:49.194Z,96512.72
2023-02-25T17:05:29.053Z,96515.50
2023-02-25T17:07:59.794Z,96513.00
2023-02-25T17:10:32.495Z,96520.06
2023-02-25T17:13:04.057Z,96520.06
2023-02-25T17:15:35.968Z,96527.16
2023-02-25T17:18:10.044Z,96529.94
2023-02-25T17:20:38.992Z,96534.22
2023-02-25T17:23:11.114Z,96529.09
2023-02-25T17:25:47.384Z,96534.50
2023-02-25T17:28:22.388Z,96541.56
2023-02-25T17:30:52.070Z,96549.31
2023-02-25T17:33:26.634Z,96553.78
2023-02-25T17:36:00.271Z,96551.28
2023-02-25T17:38:29.720Z,96553.78
2023-02-25T17:40:59.708Z,96553.06
2023-02-25T17:43:36.008Z,96552.25
2023-02-25T17:46:17.099Z,96553.22
2023-02-25T17:48:52.985Z,96556.84
2023-02-25T17:51:33.314Z,96562.25
2023-02-25T17:54:08.182Z,96561.41
2023-02-25T17:56:38.282Z,96557.16
2023-02-25T17:59:28.664Z,96558.25
2023-02-25T18:01:58.579Z,96572.38
2023-02-25T18:04:36.515Z,96573.66
2023-02-25T18:07:23.819Z,96572.13
2023-02-25T18:09:52.176Z,96574.91
2023-02-25T18:12:28.260Z,96573.41
2023-02-25T18:14:58.596Z,96575.19
2023-02-25T18:17:30.463Z,96572.72
2023-02-25T18:20:01.930Z,96569.56
2023-02-25T18:22:36.668Z,96574.13
2023-02-25T18:27:37.960Z,96581.34
2023-02-25T18:30:29.661Z,96583.59
2023-02-25T18:32:59.241Z,96582.75
2023-02-25T18:35:29.891Z,96582.06
2023-02-25T18:37:59.962Z,96581.25
2023-02-25T18:40:31.398Z,96582.22
2023-02-25T18:43:01.585Z,96589.28
2023-02-25T18:45:32.588Z,96587.66
2023-02-25T18:48:01.815Z,96599.97
2023-02-25T18:50:31.999Z,96595.00
2023-02-25T18:53:01.359Z,96600.41
2023-02-25T18:55:32.366Z,96605.78
2023-02-25T18:58:02.858Z,96598.88
2023-02-25T19:00:31.291Z,96608.56
2023-02-25T19:03:02.476Z,96610.34
2023-02-25T19:05:31.540Z,96615.75
2023-02-25T19:08:00.574Z,96615.91
2023-02-25T19:10:31.347Z,96618.69
2023-02-25T19:13:05.879Z,96618.00
2023-02-25T19:15:34.713Z,96618.00
2023-02-25T19:18:03.089Z,96622.56
2023-02-25T19:20:31.565Z,96624.38
2023-02-25T19:22:59.874Z,96621.06
2023-02-25T19:25:30.923Z,96624.00
2023-02-25T19:28:01.056Z,96633.81
2023-02-25T19:30:33.945Z,96631.31
2023-02-25T19:33:04.661Z,96635.06
2023-02-25T19:35:35.986Z,96637.97
2023-02-25T19:38:05.085Z,96640.63
2023-02-25T19:40:34.254Z,96638.78
2023-02-25T19:43:05.419Z,96634.81
2023-02-25T19:45:34.314Z,96631.34
2023-02-25T19:48:02.680Z,96635.91
2023-02-25T19:50:34.761Z,96634.25
2023-02-25T19:53:05.514Z,96638.00
2023-02-25T19:55:34.372Z,96645.03
2023-02-25T19:58:04.110Z,96648.50
2023-02-25T20:00:32.674Z,96647.00
2023-02-25T20:03:01.061Z,96641.88
2023-02-25T20:05:29.425Z,96643.81
2023-02-25T20:07:57.799Z,96646.44
2023-02-25T20:10:26.304Z,96646.56
2023-02-25T20:12:54.558Z,96651.03
2023-02-25T20:15:24.336Z,96646.88
2023-02-25T20:17:54.981Z,96641.59
2023-02-25T20:20:23.903Z,96646.06
2023-02-25T20:22:52.486Z,96651.44
2023-02-25T20:25:21.101Z,96653.22
2023-02-25T20:27:49.416Z,96651.59
2023-02-25T20:30:19.371Z,96655.31
2023-02-25T20:32:49.031Z,96663.31
2023-02-25T20:35:21.763Z,96668.72
2023-02-25T20:38:11.709Z,96673.41
2023-02-25T20:40:40.288Z,96669.09
2023-02-25T20:43:10.392Z,96674.25
2023-02-25T20:45:39.760Z,96677.69
2023-02-25T20:48:21.716Z,96679.06
2023-02-25T20:50:50.612Z,96682.69
2023-02-25T20:53:19.309Z,96684.75
2023-02-25T20:55:47.652Z,96684.88
2023-02-25T20:58:16.004Z,96691.38
2023-02-25T21:00:44.506Z,96695.53
2023-02-25T21:03:14.461Z,96700.91
2023-02-25T21:05:42.964Z,96702.84
2023-02-25T21:08:11.490Z,96705.72
2023-02-25T21:10:39.796Z,96710.28
2023-02-25T21:13:08.140Z,96705.31
2023-02-25T21:15:36.716Z,96709.88
2023-02-25T21:18:05.285Z,96710.97
2023-02-25T21:20:35.048Z,96721.88
2023-02-25T21:23:03.361Z,96717.84
2023-02-25T21:25:32.851Z,96716.47
2023-02-25T21:28:01.948Z,96709.53
2023-02-25T21:30:30.379Z,96722.00
2023-02-25T21:32:59.663Z,96717.94
2023-02-25T21:35:27.984Z,96711.19
2023-02-25T21:37:57.686Z,96707.31
2023-02-25T21:40:26.348Z,96722.34
2023-02-25T21:42:55.476Z,96717.63
2023-02-25T21:45:23.797Z,96719.84
2023-02-25T21:47:52.146Z,96722.72
2023-02-25T21:50:20.729Z,96725.63
2023-02-25T21:52:49.543Z,96723.38
2023-02-25T21:55:19.318Z,96722.22
2023-02-25T21:57:47.601Z,96724.19
2023-02-25T22:00:16.812Z,96725.38
2023-02-25T22:02:45.247Z,96726.34
2023-02-25T22:05:13.567Z,96722.88
2023-02-25T22:07:41.939Z,96720.66
2023-02-25T22:10:12.476Z,96720.53
2023-02-25T22:12:42.460Z,96719.84
2023-02-25T22:15:11.684Z,96720.78
2023-02-25T22:17:40.154Z,96717.22
2023-02-25T22:20:10.547Z,96720.66
2023-02-25T22:22:39.504Z,96711.84
2023-02-25T22:25:08.787Z,96711.84
2023-02-25T22:27:37.168Z,96716.97
2023-02-25T22:30:08.931Z,96710.75
2023-02-25T22:32:38.078Z,96713.22
2023-02-25T22:35:08.292Z,96713.38
2023-02-25T22:37:36.622Z,96717.91
2023-02-25T22:40:05.744Z,96724.13
2023-02-25T22:42:34.129Z,96716.50
2023-02-25T22:45:02.555Z,96728.09
2023-02-25T22:47:32.498Z,96721.19
2023-02-25T22:50:00.834Z,96726.84
2023-02-25T22:52:29.113Z,96718.66
2023-02-25T22:54:57.537Z,96721.66
2023-02-25T22:57:25.906Z,96724.66
2023-02-25T22:59:54.305Z,96730.75
2023-02-25T23:02:22.612Z,96730.75
2023-02-25T23:04:52.317Z,96739.94
2023-02-25T23:07:20.909Z,96744.38
2023-02-25T23:09:49.888Z,96749.88
2023-02-25T23:12:19.105Z,96752.50
2023-02-25T23:14:48.059Z,96756.56
2023-02-25T23:17:16.424Z,96751.44
2023-02-25T23:19:44.728Z,96767.03
2023-02-25T23:22:21.456Z,96756.00
2023-02-25T23:24:49.816Z,96759.44
2023-02-25T23:27:18.169Z,96762.06
2023-02-25T23:29:46.462Z,96761.50
2023-02-25T23:32:14.897Z,96764.94
2023-02-25T23:34:43.203Z,96762.59
2023-02-25T23:37:14.581Z,96764.63
2023-02-25T23:39:43.674Z,96767.13
2023-02-25T23:42:12.108Z,96767.38
2023-02-25T23:44:40.558Z,96769.28
2023-02-25T23:47:09.042Z,96769.91
2023-02-25T23:49:38.061Z,96771.59
2023-02-25T23:52:06.551Z,96772.41
2023-02-25T23:54:36.432Z,96774.31
2023-02-25T23:57:04.877Z,96774.31
2023-02-25T23:59:33.512Z,96776.22
